Barcroft Research Lab Weather observations

Data are for 10 minute period ending at time listed.
 Day   Time   Solar   Ave.   Ave.  Ave.  Vector  Std.   Max.    Baro.    
  of    of     Rad.   Air    Rel.  Wind   Wind   Dev.   Wind   Press.    
Year   Day            Temp.  Hum.  Speed  Dir.   Dir.   Gust            
2016   (PST)  Kw/m2    F      %     mph   deg.   deg.    mph     mb.    
------------------------------------------------------------------------
  43    5:00       0   23.1    15    2.6   298    -99     3.8   648.50  
  43    5:10       0   22.6    14    2.9   289    -99     3.9   648.60  
  43    5:20       0   23.8    13    2.7   291    -99     3.8   648.60  
  43    5:30       0   21.1    17    3.7   306    -99     5.3   648.60  
  43    5:40       0   20.0    19    5.3   310    -99     7.9   648.60  
  43    5:50       0   19.6    20    5.6   301    -99     7.3   648.60  
  43    6:00       0   19.6    20    4.1   306    -99     5.8   648.60  
  43    6:10       0   19.9    19    5.3   307    -99     6.8   648.70  
  43    6:20       0   20.1    21    5.2   304    -99     7.5   648.70  
  43    6:30       0   19.0    23    5.3   308    -99     6.9   648.70  
  43    6:40       4   19.7    21    4.7   309    -99     6.4   648.70  
  43    6:50       8   21.7    16    4.2   291    -99     5.5   648.70  
  43    7:00      20   25.2    14    2.9   293    -99     3.9   648.70  
  43    7:10      36   22.1    20    2.9   311    -99     3.9   648.80  
  43    7:20      69   21.9    19    3.5   306    -99     4.7   648.80  
  43    7:30      70   23.1    18    3.2   297    -99     4.2   648.80  
  43    7:40      80   21.5    22    3.6   300    -99     5.0   648.80  
  43    7:50     126   24.1    16    3.7   293    -99     4.7   648.80  
  43    8:00     208   26.4    18    2.9   298    -99     4.1   648.80  
  43    8:10     271   30.3    13    2.9   282    -99     3.7   649.00  
  43    8:20     292   34.0    12    2.8   282    -99     3.4   649.00  
  43    8:30     335   35.1    11    3.2   274    -99     3.8   649.00  
  43    8:40     405   35.6    12    3.1   258    -99     4.2   649.00  
  43    8:50     445   36.3    12    3.8   269    -99     5.0   649.00  
  43    9:00     357   36.6    13    4.3   270    -99     6.6   649.00  
  43    9:10     432   35.4    14    6.4   278    -99     9.1   649.10  
  43    9:20     461   35.3    16    8.4   278    -99    10.1   649.10  
  43    9:30     466   33.9    18    7.6   262    -99     9.1   649.10  
  43    9:40     440   34.0    17    8.1   259    -99     9.9   649.10  
  43    9:50     449   33.5    15    9.2   255    -99    10.8   649.10  
  43   10:00     516   34.3    12    9.2   252    -99    10.7   649.10  
  43   10:10     571   34.8    12    9.0   255    -99    10.9   649.10  
  43   10:20     478   34.7    10    9.1   249    -99    11.6   649.10  
  43   10:30     585   34.9    10    9.3   250    -99    14.5   649.10  
  43   10:40     628   35.4    11    9.3   259    -99    13.0   649.10  
  43   10:50     579   34.9    20    9.6   271    -99    12.4   649.10  
  43   11:00     694   35.2    11    8.7   252    -99    13.5   649.10  
  43   11:10     694   35.1    12    9.5   250    -99    14.0   649.10  
  43   11:20     658   34.6    13    9.8   255    -99    13.7   649.10  
  43   11:30     692   34.2    14   10.2   248    -99    13.7   649.10  
  43   11:40     659   34.2    13   10.5   248    -99    14.2   649.10  
  43   11:50     697   34.4    14    9.2   246    -99    14.3   649.10  
  43   12:00     632   34.6    16    9.3   255    -99    14.0   649.10  
  43   12:10     652   34.1    17   11.4   261    -99    16.7   648.60  
  43   12:20     543   33.3    20   13.0   271    -99    15.2   648.60  
  43   12:30     423   32.4    20   12.3   266    -99    15.7   648.60  
  43   12:40     437   32.2    18   11.8   256    -99    17.0   648.60  
  43   12:50     412   32.4    15   12.2   246    -99    21.5   648.60  
  43   13:00     432   32.3    15   13.1   251    -99    18.9   648.60  
  43   13:10     425   32.4    15   11.8   254    -99    19.3   648.10  
  43   13:20     454   32.7    17   12.7   256    -99    17.8   648.10  
  43   13:30     357   31.5    22   13.6   263    -99    18.6   648.10  
  43   13:40     386   31.3    23   13.6   264    -99    17.6   648.10  
  43   13:50     385   31.2    24   13.7   263    -99    18.0   648.10  
  43   14:00     363   31.1    24   13.3   264    -99    18.0   648.10  
  43   14:10     418   31.5    24   13.3   268    -99    19.4   647.70  
  43   14:20     452   32.1    20   12.9   258    -99    20.8   647.70  
  43   14:30     402   32.4    18   14.5   256    -99    22.9   647.70  
  43   14:40     389   31.8    22   13.5   257    -99    18.3   647.70  
  43   14:50     362   32.1    18   12.5   253    -99    20.3   647.70  
  43   15:00     402   32.3    17   12.4   253    -99    21.3   647.70  
  43   15:10     432   32.6    17   14.4   256    -99    25.4   647.50  
  43   15:20     272   31.9    18   13.5   256    -99    23.1   647.50  
  43   15:30     229   31.5    17   12.5   255    -99    21.5   647.50  
  43   15:40     211   31.5    17   13.1   249    -99    27.6   647.50  
  43   15:50     207   31.4    17   12.8   254    -99    24.7   647.50  
  43   16:00     188   31.2    17   14.2   255    -99    23.5   647.50  
  43   16:10     211   30.9    21   12.9   253    -99    19.6   647.50  
  43   16:20     208   31.0    20   13.6   254    -99    20.7   647.50  
  43   16:30     154   30.6    22   13.9   255    -99    20.3   647.50  
  43   16:40      83   29.9    22   13.0   256    -99    21.2   647.50  
  43   16:50      67   30.3    19   13.7   251    -99    21.6   647.50  
  43   17:00      50   30.2    18   11.4   252    -99    22.1   647.50  
  43   17:10      29   29.6    18   12.5   253    -99    20.0   647.60  
  43   17:20      12   29.7    18   12.2   250    -99    20.2   647.60  
  43   17:30       4   29.5    18   11.8   250    -99    18.3   647.60  
  43   17:40       1   29.3    19   11.6   250    -99    19.1   647.60  
  43   17:50       0   28.5    20   11.8   257    -99    15.6   647.60  
  43   18:00       0   26.1    25   13.8   265    -99    16.7   647.60  
  43   18:10       0   25.5    26   15.8   267    -99    17.4   647.40  
  43   18:20       0   25.1    28   14.5   272    -99    17.1   647.40  
  43   18:30       0   24.5    31   12.4   273    -99    14.0   647.40  
  43   18:40       0   25.1    32   13.3   276    -99    15.8   647.40  
  43   18:50       0   25.1    34   13.2   275    -99    15.3   647.40  
  43   19:00       0   25.2    33   13.4   277    -99    16.3   647.40  
  43   19:10       0   26.1    28   13.0   283    -99    17.5   647.50  
  43   19:20       0   26.7    28   12.9   285    -99    16.8   647.50  
  43   19:30       0   26.1    30   12.9   278    -99    16.3   647.50  
  43   19:40       0   25.9    30   11.8   279    -99    15.3   647.50  
  43   19:50       0   26.2    30   12.0   280    -99    15.1   647.50  
  43   20:00       0   25.7    31   11.2   280    -99    14.1   647.50  
  43   20:10       0   26.0    29   12.1   282    -99    15.1   647.60  
  43   20:20       0   25.5    30   12.9   273    -99    15.5   647.60  
  43   20:30       0   24.9    30   12.9   271    -99    14.4   647.60  
  43   20:40       0   24.9    29   12.7   266    -99    14.6   647.60  
  43   20:50       0   25.2    28   12.4   266    -99    14.5   647.60  
  43   21:00       0   24.8    28   12.1   270    -99    14.8   647.60  
  43   21:10       0   24.1    30   12.2   272    -99    14.5   647.50  
  43   21:20       0   24.5    29   11.8   276    -99    14.8   647.50  
  43   21:30       0   24.3    28   12.0   277    -99    16.7   647.50  
  43   21:40       0   24.9    27   11.9   280    -99    14.8   647.50  
  43   21:50       0   24.3    28   11.2   269    -99    13.1   647.50  
  43   22:00       0   24.1    29   11.5   270    -99    13.6   647.50  
  43   22:10       0   23.9    28   11.8   266    -99    14.0   647.50  
  43   22:20       0   23.7    30   11.9   269    -99    13.8   647.50  
  43   22:30       0   23.7    29   12.1   264    -99    13.7   647.50  
  43   22:40       0   24.2    27   11.8   260    -99    14.2   647.50  
  43   22:50       0   25.7    24   12.0   262    -99    15.4   647.50  
  43   23:00       0   23.7    30   12.4   264    -99    13.7   647.50  
  43   23:10       0   23.2    31   12.0   265    -99    12.9   647.40  
  43   23:20       0   23.4    29   10.9   261    -99    12.3   647.40  
  43   23:30       0   26.2    19    9.9   255    -99    12.3   647.40  
  43   23:40       0   25.7    24    9.1   262    -99    12.8   647.40  
  43   23:50       0   23.2    32    8.5   266    -99     9.9   647.40  
  44    0:00       0   22.7    33    8.3   268    -99     9.8   647.40  
  44    0:10       0   23.2    30    9.0   265    -99    10.7   647.30  
  44    0:20       0   23.4    28    9.3   267    -99    12.3   647.30  
  44    0:30       0   23.2    30    9.3   270    -99    11.3   647.30  
  44    0:40       0   23.9    27    9.7   264    -99    12.9   647.30  
  44    0:50       0   25.3    23   10.9   262    -99    14.5   647.30  
  44    1:00       0   26.2    19    9.8   258    -99    14.1   647.30  
  44    1:10       0   26.9    18    8.6   253    -99    12.9   647.00  
  44    1:20       0   26.4    19    9.7   257    -99    14.7   647.00  
  44    1:30       0   26.3    19    9.0   256    -99    13.2   647.00  
  44    1:40       0   25.9    21    8.9   260    -99    13.2   647.00  
  44    1:50       0   25.3    22    9.8   261    -99    14.5   647.00  
  44    2:00       0   26.1    19    9.3   253    -99    14.9   647.00  
  44    2:10       0   25.5    23    9.3   264    -99    13.6   646.90  
  44    2:20       0   24.3    26    9.9   266    -99    12.6   646.90  
  44    2:30       0   23.5    29   10.4   269    -99    12.3   646.90  
  44    2:40       0   23.2    30   10.5   269    -99    13.5   646.90  
  44    2:50       0   23.1    30   10.6   269    -99    12.0   646.90  
  44    3:00       0   22.2    31   10.5   271    -99    11.8   646.90  
  44    3:10       0   21.5    31   11.1   270    -99    12.3   646.60  
  44    3:20       0   21.3    30   11.0   271    -99    12.7   646.60  
  44    3:30       0   22.0    26   11.0   266    -99    12.4   646.60  
  44    3:40       0   22.6    23   10.7   263    -99    14.8   646.60  
  44    3:50       0   22.0    26   11.0   269    -99    13.9   646.60  
  44    4:00       0   21.7    26   11.1   268    -99    15.9   646.60  
  44    4:10       0   20.7    28   10.1   271    -99    11.5   646.60  
  44    4:20       0   20.0    29    9.9   272    -99    11.1   646.60  
  44    4:30       0   20.0    27    9.8   270    -99    11.2   646.60  
  44    4:40       0   19.8    27    9.7   275    -99    11.5   646.60  
  44    4:50       0   20.6    26    9.1   277    -99    10.4   646.60  

Return to Barcroft Research Lab graphs page.


Western Regional Climate Center,wrcc@dri.edu